首页
METAR-TAF:

METAR-TAF

机场 :

海伦娜区域机场

赫勒拿, 蒙大拿州, 美国

纬度: 46-36-20N, 经度: 111-57-49W, 海拔: 1180米

当前天气观测

该预报发布于36分钟前的10:53 UTC
风速7节,风向西转西南
温度 10°C
湿度 62%
气压 1008 hPa
能見度: 16.1公里
天空无云

METAR: KHLN 151053Z AUTO 25007KT 10SM CLR 10/03 A2978 RMK AO2 SLP074 T01000028

时间: 05:29 (11:29 UTC)

预报

该预报发布于4小时和6分钟前的07:23 UTC
预报有效从15日的 06点(UTC)到 16日的 06点(UTC)
风速6节,风向多变
能見度: 10公里
散云层高于8000英尺
多云层高于11000英尺
从 15日的 1600点(UTC)
风速13节,风向西,有时为21节阵风
能見度: 10公里
散云层高于4000英尺
多云层高于7000英尺
几率 30%
从 15日的 18点(UTC)到 15日的 21点(UTC)
能見度: 9.7公里
多云层高于3500英尺
小阵雨, 轻雾
从 15日的 2100点(UTC)
风速18节,风向西转西北,有时为27节阵风
能見度: 10公里
散云层高于9000英尺

TAF: KHLN 150723Z 1506/1606 VRB06KT P6SM SCT080 BKN110 FM151600 28013G21KT P6SM SCT040 BKN070 PROB30 1518/1521 6SM -SHRA BR BKN035 FM152100 29018G27KT P6SM SCT090

超过4000个机场的气象观测和天气预报(METAR&TAF报告)。

可查询的气象台以黄色和红色小点在地图上表示。

将鼠标移到小点上方,可查看气象台名称。

然后点击查看天气观测和预报。

如需切换地图:点击带黑十字的绿色按钮放大地图;点击带横线的绿色按钮缩小地图;或者点击绿色箭头查看邻近地区的地图。


METAR-TAF: